createdAt,value
2019-03-02T00:06:02.204Z,8.27
2019-03-02T00:16:14.312Z,8.30
2019-03-02T00:22:52.253Z,8.13
2019-03-02T00:29:31.205Z,7.17
2019-03-02T00:36:15.965Z,8.80
2019-03-02T00:42:57.177Z,8.33
2019-03-02T00:49:34.891Z,6.80
2019-03-02T00:56:12.053Z,7.07
2019-03-02T01:02:40.902Z,8.33
2019-03-02T01:09:07.926Z,6.70
2019-03-02T01:19:09.308Z,9.53
2019-03-02T01:25:35.511Z,7.97
2019-03-02T01:32:01.330Z,8.60
2019-03-02T01:38:15.710Z,8.13
2019-03-02T01:44:39.600Z,9.10
2019-03-02T01:51:05.451Z,8.47
2019-03-02T01:57:32.502Z,9.50
2019-03-02T02:04:02.353Z,9.67
2019-03-02T02:10:29.962Z,9.17
2019-03-02T02:20:32.905Z,10.00
2019-03-02T02:27:04.903Z,11.20
2019-03-02T02:33:31.872Z,10.93
2019-03-02T02:39:33.147Z,11.43
2019-03-02T02:46:01.297Z,12.50
2019-03-02T02:52:28.301Z,11.80
2019-03-02T02:59:01.655Z,11.27
2019-03-02T03:05:26.483Z,12.00
2019-03-02T03:11:52.654Z,12.67
2019-03-02T03:22:07.212Z,14.40
2019-03-02T03:28:32.681Z,14.67
2019-03-02T03:35:17.133Z,15.67
2019-03-02T03:41:25.202Z,17.20
2019-03-02T03:48:03.143Z,16.37
2019-03-02T03:54:45.494Z,17.97
2019-03-02T04:01:17.829Z,17.00
2019-03-02T04:07:49.576Z,17.70
2019-03-02T04:14:19.047Z,18.77
2019-03-02T04:24:17.441Z,17.20
2019-03-02T04:30:46.157Z,19.03
2019-03-02T04:37:25.474Z,18.50
2019-03-02T04:44:03.412Z,20.57
2019-03-02T04:50:45.392Z,19.00
2019-03-02T04:57:23.216Z,20.17
2019-03-02T05:04:01.272Z,18.03
2019-03-02T05:10:38.201Z,20.90
2019-03-02T05:17:17.154Z,19.00
2019-03-02T05:26:42.764Z,19.93
2019-03-02T05:33:08.329Z,19.20
2019-03-02T05:39:34.179Z,20.07
2019-03-02T05:46:00.845Z,19.77
2019-03-02T05:52:25.467Z,20.30
2019-03-02T05:58:54.888Z,20.33
2019-03-02T06:05:20.703Z,22.00
2019-03-02T06:11:56.626Z,18.80
2019-03-02T06:18:36.620Z,19.77
2019-03-02T06:28:50.669Z,20.80
2019-03-02T06:35:16.481Z,19.43
2019-03-02T06:41:17.844Z,22.60
2019-03-02T06:47:56.804Z,20.80
2019-03-02T06:54:35.756Z,21.10
2019-03-02T07:01:15.926Z,21.47
2019-03-02T07:07:57.304Z,23.57
2019-03-02T07:14:41.907Z,22.20
2019-03-02T07:31:55.902Z,23.77
2019-03-02T07:38:21.674Z,22.93
2019-03-02T07:44:33.743Z,22.07
2019-03-02T07:51:12.594Z,22.17
2019-03-02T07:57:51.547Z,22.53
2019-03-02T08:04:30.957Z,24.30
2019-03-02T08:10:56.320Z,24.83
2019-03-02T08:17:22.135Z,24.80
2019-03-02T08:23:51.784Z,23.40
2019-03-02T08:33:58.509Z,25.00
2019-03-02T08:40:39.952Z,23.67
2019-03-02T08:47:09.129Z,23.80
2019-03-02T08:53:34.398Z,25.13
2019-03-02T09:00:18.264Z,22.13
2019-03-02T09:06:54.355Z,22.23
2019-03-02T09:13:34.639Z,20.70
2019-03-02T09:20:12.276Z,26.13
2019-03-02T09:26:36.891Z,17.60
2019-03-02T09:36:43.540Z,18.37
2019-03-02T09:42:38.063Z,18.80
2019-03-02T09:49:07.342Z,18.80
2019-03-02T09:55:35.486Z,18.57
2019-03-02T10:02:03.984Z,17.33
2019-03-02T10:08:32.179Z,20.33
2019-03-02T10:15:09.107Z,16.30
2019-03-02T10:21:47.519Z,15.13
2019-03-02T10:28:24.995Z,13.73
2019-03-02T10:40:59.453Z,13.50
2019-03-02T10:47:25.285Z,12.90
2019-03-02T10:53:51.678Z,9.83
2019-03-02T11:00:25.626Z,15.20
2019-03-02T11:06:59.907Z,12.60
2019-03-02T11:13:32.567Z,11.60
2019-03-02T11:20:35.693Z,10.40
2019-03-02T11:27:13.073Z,9.17
2019-03-02T11:33:59.946Z,9.53
2019-03-02T11:44:17.857Z,8.90
2019-03-02T11:47:13.805Z,10.13
2019-03-02T11:54:12.602Z,7.40
2019-03-02T12:01:02.009Z,11.17
2019-03-02T12:07:49.766Z,9.23
2019-03-02T12:14:50.254Z,8.67
2019-03-02T12:21:36.229Z,8.43
2019-03-02T12:28:43.162Z,8.53
2019-03-02T12:35:29.087Z,7.73
2019-03-02T12:46:00.294Z,5.20
2019-03-02T12:52:51.771Z,6.03
2019-03-02T12:59:35.936Z,4.23
2019-03-02T13:05:50.194Z,4.30
2019-03-02T13:12:42.781Z,3.10
2019-03-02T13:19:43.340Z,3.63
2019-03-02T13:26:39.495Z,4.13
2019-03-02T13:33:34.397Z,3.43
2019-03-02T13:40:17.976Z,3.10
2019-03-02T13:46:56.932Z,4.17
2019-03-02T13:53:30.486Z,3.23
2019-03-02T14:00:31.980Z,3.60
2019-03-02T14:06:54.445Z,3.90
2019-03-02T14:13:54.803Z,2.63
2019-03-02T14:20:34.914Z,3.80
2019-03-02T14:27:07.799Z,3.20
2019-03-02T14:34:03.036Z,3.50
2019-03-02T14:41:00.039Z,3.40
2019-03-02T14:47:41.017Z,4.53
2019-03-02T14:54:38.147Z,4.77
2019-03-02T15:01:40.081Z,7.00
2019-03-02T15:08:02.107Z,7.20
2019-03-02T15:14:38.351Z,6.37
2019-03-02T15:21:21.728Z,6.80
2019-03-02T15:28:06.022Z,5.30
2019-03-02T15:35:10.240Z,5.30
2019-03-02T15:41:58.266Z,3.90
2019-03-02T15:48:44.291Z,5.13
2019-03-02T15:55:30.985Z,5.67
2019-03-02T16:02:30.420Z,4.80
2019-03-02T16:12:08.270Z,4.00
2019-03-02T16:19:08.347Z,4.13
2019-03-02T16:25:49.317Z,3.60
2019-03-02T16:32:32.307Z,2.80
2019-03-02T16:39:14.924Z,3.53
2019-03-02T16:46:04.618Z,3.13
2019-03-02T16:53:11.342Z,5.43
2019-03-02T16:59:57.599Z,2.57
2019-03-02T17:06:28.033Z,2.63
2019-03-02T17:13:02.079Z,2.50
2019-03-02T17:19:52.091Z,2.47
2019-03-02T17:26:49.512Z,2.00
2019-03-02T17:33:48.708Z,1.77
2019-03-02T17:40:42.230Z,1.50
2019-03-02T17:51:23.145Z,2.27
2019-03-02T17:58:05.892Z,1.80
2019-03-02T18:05:15.156Z,1.77
2019-03-02T18:08:08.801Z,2.00
2019-03-02T18:14:21.794Z,1.90
2019-03-02T18:20:45.375Z,1.53
2019-03-02T18:27:22.525Z,1.63
2019-03-02T18:33:53.048Z,1.57
2019-03-02T18:40:21.236Z,1.77
2019-03-02T18:46:49.414Z,1.50
2019-03-02T18:53:14.692Z,1.50
2019-03-02T18:59:43.308Z,1.93
2019-03-02T19:06:11.586Z,1.90
2019-03-02T19:12:37.413Z,2.10
2019-03-02T19:19:22.412Z,1.80
2019-03-02T19:25:59.993Z,2.03
2019-03-02T19:32:40.322Z,3.03
2019-03-02T19:39:28.151Z,2.63
2019-03-02T19:45:56.872Z,3.20
2019-03-02T19:52:23.940Z,3.07
2019-03-02T19:58:48.845Z,3.07
2019-03-02T20:05:25.776Z,3.23
2019-03-02T20:15:41.534Z,3.90
2019-03-02T20:22:22.530Z,4.97
2019-03-02T20:28:59.779Z,4.77
2019-03-02T20:35:36.346Z,5.10
2019-03-02T20:42:04.245Z,5.20
2019-03-02T20:48:34.405Z,5.10
2019-03-02T20:55:13.148Z,5.30
2019-03-02T21:01:50.070Z,4.93
2019-03-02T21:08:16.102Z,4.70
2019-03-02T21:18:17.051Z,5.00
2019-03-02T21:24:54.000Z,5.90
2019-03-02T21:31:19.564Z,5.70
2019-03-02T21:37:48.274Z,5.87
2019-03-02T21:44:22.325Z,5.40
2019-03-02T21:50:48.168Z,5.70
2019-03-02T21:56:37.564Z,4.90
2019-03-02T22:03:05.463Z,5.27
2019-03-02T22:09:42.370Z,5.23
2019-03-02T22:19:54.323Z,4.50
2019-03-02T22:26:20.484Z,4.53
2019-03-02T22:32:48.070Z,4.47
2019-03-02T22:39:31.952Z,5.30
2019-03-02T22:45:58.144Z,4.80
2019-03-02T22:52:21.941Z,4.47
2019-03-02T22:58:47.761Z,8.80
2019-03-02T23:05:18.220Z,4.60
2019-03-02T23:11:46.472Z,5.20
2019-03-02T23:22:01.340Z,5.00
2019-03-02T23:28:27.440Z,3.40
2019-03-02T23:34:14.823Z,4.17
2019-03-02T23:40:40.642Z,3.23
2019-03-02T23:47:08.283Z,4.27
2019-03-02T23:53:32.085Z,3.30
